sensor_id;sensor_type;location;lat;lon;timestamp;pressure;altitude;pressure_sealevel;temperature;humidity
46223;BME280;31943;51.410;7.564;2023-05-23T00:02:05;100308.63;;;16.64;67.49
46223;BME280;31943;51.410;7.564;2023-05-23T00:04:33;100305.94;;;16.66;67.67
46223;BME280;31943;51.410;7.564;2023-05-23T00:06:59;100297.13;;;16.68;67.36
46223;BME280;31943;51.410;7.564;2023-05-23T00:09:27;100293.59;;;16.71;67.45
46223;BME280;31943;51.410;7.564;2023-05-23T00:11:53;100296.22;;;16.71;67.38
46223;BME280;31943;51.410;7.564;2023-05-23T00:14:22;100286.56;;;16.70;67.42
46223;BME280;31943;51.410;7.564;2023-05-23T00:16:53;100291.72;;;16.77;67.39
46223;BME280;31943;51.410;7.564;2023-05-23T00:19:28;100291.69;;;16.80;67.20
46223;BME280;31943;51.410;7.564;2023-05-23T00:21:55;100294.34;;;16.82;67.17
46223;BME280;31943;51.410;7.564;2023-05-23T00:24:21;100294.31;;;16.80;67.51
46223;BME280;31943;51.410;7.564;2023-05-23T00:26:47;100304.78;;;16.87;67.29
46223;BME280;31943;51.410;7.564;2023-05-23T00:29:16;100303.03;;;16.87;67.13
46223;BME280;31943;51.410;7.564;2023-05-23T00:31:47;100293.31;;;16.89;67.59
46223;BME280;31943;51.410;7.564;2023-05-23T00:34:14;100305.72;;;16.84;67.23
46223;BME280;31943;51.410;7.564;2023-05-23T00:36:40;100306.63;;;16.80;67.62
46223;BME280;31943;51.410;7.564;2023-05-23T00:39:08;100315.50;;;16.73;67.80
46223;BME280;31943;51.410;7.564;2023-05-23T00:41:33;100316.47;;;16.66;67.50
46223;BME280;31943;51.410;7.564;2023-05-23T00:44:02;100320.97;;;16.59;67.97
46223;BME280;31943;51.410;7.564;2023-05-23T00:46:30;100310.47;;;16.56;67.62
46223;BME280;31943;51.410;7.564;2023-05-23T00:49:00;100318.34;;;16.57;67.91
46223;BME280;31943;51.410;7.564;2023-05-23T00:51:28;100322.69;;;16.60;67.63
46223;BME280;31943;51.410;7.564;2023-05-23T00:54:00;100320.97;;;16.57;67.23
46223;BME280;31943;51.410;7.564;2023-05-23T00:56:28;100333.38;;;16.51;67.35
46223;BME280;31943;51.410;7.564;2023-05-23T00:58:55;100336.03;;;16.49;67.42
46223;BME280;31943;51.410;7.564;2023-05-23T01:01:23;100344.00;;;16.45;67.40
46223;BME280;31943;51.410;7.564;2023-05-23T01:04:01;100346.69;;;16.38;66.82
46223;BME280;31943;51.410;7.564;2023-05-23T01:06:27;100339.81;;;16.27;66.87
46223;BME280;31943;51.410;7.564;2023-05-23T01:08:52;100347.78;;;16.19;66.75
46223;BME280;31943;51.410;7.564;2023-05-23T01:11:24;100342.66;;;16.07;66.78
46223;BME280;31943;51.410;7.564;2023-05-23T01:14:00;100348.00;;;16.04;66.73
46223;BME280;31943;51.410;7.564;2023-05-23T01:16:34;100347.16;;;15.97;66.51
46223;BME280;31943;51.410;7.564;2023-05-23T01:19:14;100341.09;;;15.89;65.80
46223;BME280;31943;51.410;7.564;2023-05-23T01:21:42;100345.66;;;15.74;66.03
46223;BME280;31943;51.410;7.564;2023-05-23T01:24:31;100350.94;;;15.65;66.23
46223;BME280;31943;51.410;7.564;2023-05-23T01:27:08;100342.25;;;15.58;66.21
46223;BME280;31943;51.410;7.564;2023-05-23T01:29:47;100352.84;;;15.48;66.53
46223;BME280;31943;51.410;7.564;2023-05-23T01:32:29;100339.75;;;15.43;66.73
46223;BME280;31943;51.410;7.564;2023-05-23T01:34:58;100343.25;;;15.42;66.72
46223;BME280;31943;51.410;7.564;2023-05-23T01:37:24;100343.38;;;15.30;67.51
46223;BME280;31943;51.410;7.564;2023-05-23T01:39:51;100339.88;;;15.26;67.61
46223;BME280;31943;51.410;7.564;2023-05-23T01:42:24;100337.28;;;15.23;67.74
46223;BME280;31943;51.410;7.564;2023-05-23T01:44:55;100341.72;;;15.16;68.00
46223;BME280;31943;51.410;7.564;2023-05-23T01:47:23;100339.06;;;15.19;68.06
46223;BME280;31943;51.410;7.564;2023-05-23T01:49:53;100342.56;;;15.20;68.34
46223;BME280;31943;51.410;7.564;2023-05-23T01:52:20;100345.16;;;15.25;68.28
46223;BME280;31943;51.410;7.564;2023-05-23T01:54:49;100342.50;;;15.25;68.12
46223;BME280;31943;51.410;7.564;2023-05-23T01:57:25;100344.28;;;15.24;68.42
46223;BME280;31943;51.410;7.564;2023-05-23T02:00:07;100343.38;;;15.30;68.23
46223;BME280;31943;51.410;7.564;2023-05-23T02:02:35;100350.38;;;15.29;68.16
46223;BME280;31943;51.410;7.564;2023-05-23T02:05:01;100347.72;;;15.31;68.44
46223;BME280;31943;51.410;7.564;2023-05-23T02:07:28;100348.56;;;15.36;67.99
46223;BME280;31943;51.410;7.564;2023-05-23T02:09:55;100353.78;;;15.42;67.95
46223;BME280;31943;51.410;7.564;2023-05-23T02:12:30;100358.13;;;15.46;67.70
46223;BME280;31943;51.410;7.564;2023-05-23T02:14:58;100355.53;;;15.43;67.54
46223;BME280;31943;51.410;7.564;2023-05-23T02:17:25;100355.53;;;15.41;68.10
46223;BME280;31943;51.410;7.564;2023-05-23T02:19:50;100357.25;;;15.46;67.88
46223;BME280;31943;51.410;7.564;2023-05-23T02:22:23;100351.09;;;15.50;68.06
46223;BME280;31943;51.410;7.564;2023-05-23T02:24:52;100360.69;;;15.52;68.01
46223;BME280;31943;51.410;7.564;2023-05-23T02:27:18;100366.84;;;15.51;68.09
46223;BME280;31943;51.410;7.564;2023-05-23T02:29:44;100363.38;;;15.49;68.31
46223;BME280;31943;51.410;7.564;2023-05-23T02:32:14;100368.63;;;15.48;68.90
46223;BME280;31943;51.410;7.564;2023-05-23T02:34:40;100361.59;;;15.48;68.75
46223;BME280;31943;51.410;7.564;2023-05-23T02:37:15;100360.75;;;15.46;68.92
46223;BME280;31943;51.410;7.564;2023-05-23T02:39:47;100356.41;;;15.43;69.36
46223;BME280;31943;51.410;7.564;2023-05-23T02:42:19;100355.50;;;15.46;69.45
46223;BME280;31943;51.410;7.564;2023-05-23T02:44:45;100350.19;;;15.52;69.63
46223;BME280;31943;51.410;7.564;2023-05-23T02:47:13;100357.13;;;15.61;69.62
46223;BME280;31943;51.410;7.564;2023-05-23T02:49:42;100362.34;;;15.66;69.48
46223;BME280;31943;51.410;7.564;2023-05-23T02:52:08;100362.34;;;15.67;69.58
46223;BME280;31943;51.410;7.564;2023-05-23T02:54:34;100362.34;;;15.67;69.28
46223;BME280;31943;51.410;7.564;2023-05-23T02:57:03;100365.81;;;15.72;69.38
46223;BME280;31943;51.410;7.564;2023-05-23T02:59:31;100362.31;;;15.73;69.41
46223;BME280;31943;51.410;7.564;2023-05-23T03:02:03;100359.66;;;15.78;69.38
46223;BME280;31943;51.410;7.564;2023-05-23T03:04:39;100350.84;;;15.77;68.82
46223;BME280;31943;51.410;7.564;2023-05-23T03:07:05;100353.50;;;15.77;69.11
46223;BME280;31943;51.410;7.564;2023-05-23T03:09:33;100358.81;;;15.74;69.22
46223;BME280;31943;51.410;7.564;2023-05-23T03:12:17;100355.25;;;15.78;68.82
46223;BME280;31943;51.410;7.564;2023-05-23T03:14:43;100358.81;;;15.73;68.74
46223;BME280;31943;51.410;7.564;2023-05-23T03:17:11;100358.78;;;15.70;69.04
46223;BME280;31943;51.410;7.564;2023-05-23T03:19:48;100361.41;;;15.71;69.17
46223;BME280;31943;51.410;7.564;2023-05-23T03:22:17;100360.56;;;15.68;69.41
46223;BME280;31943;51.410;7.564;2023-05-23T03:24:52;100359.66;;;15.72;69.23
46223;BME280;31943;51.410;7.564;2023-05-23T03:27:23;100364.06;;;15.70;69.11
46223;BME280;31943;51.410;7.564;2023-05-23T03:29:49;100357.94;;;15.69;69.23
46223;BME280;31943;51.410;7.564;2023-05-23T03:32:14;100360.56;;;15.68;69.41
46223;BME280;31943;51.410;7.564;2023-05-23T03:34:42;100364.97;;;15.66;69.74
46223;BME280;31943;51.410;7.564;2023-05-23T03:37:09;100359.75;;;15.59;69.94
46223;BME280;31943;51.410;7.564;2023-05-23T03:39:35;100365.88;;;15.60;69.99
46223;BME280;31943;51.410;7.564;2023-05-23T03:42:01;100368.56;;;15.55;70.42
46223;BME280;31943;51.410;7.564;2023-05-23T03:44:27;100368.63;;;15.51;70.46
46223;BME280;31943;51.410;7.564;2023-05-23T03:46:52;100368.56;;;15.57;70.70
46223;BME280;31943;51.410;7.564;2023-05-23T03:49:18;100372.88;;;15.64;70.09
46223;BME280;31943;51.410;7.564;2023-05-23T03:51:45;100376.41;;;15.65;70.18
46223;BME280;31943;51.410;7.564;2023-05-23T03:54:11;100379.94;;;15.57;70.01
46223;BME280;31943;51.410;7.564;2023-05-23T03:56:37;100380.00;;;15.51;70.37
46223;BME280;31943;51.410;7.564;2023-05-23T03:59:02;100384.41;;;15.48;70.46
46223;BME280;31943;51.410;7.564;2023-05-23T04:01:29;100386.19;;;15.46;70.40
46223;BME280;31943;51.410;7.564;2023-05-23T04:03:57;100388.88;;;15.36;70.62
46223;BME280;31943;51.410;7.564;2023-05-23T04:06:23;100399.44;;;15.29;71.13
46223;BME280;31943;51.410;7.564;2023-05-23T04:08:51;100397.72;;;15.25;71.15
46223;BME280;31943;51.410;7.564;2023-05-23T04:11:18;100399.50;;;15.21;71.46
46223;BME280;31943;51.410;7.564;2023-05-23T04:13:44;100405.66;;;15.18;71.38
46223;BME280;31943;51.410;7.564;2023-05-23T04:16:10;100405.69;;;15.09;71.65
46223;BME280;31943;51.410;7.564;2023-05-23T04:18:36;100407.47;;;15.07;71.63
46223;BME280;31943;51.410;7.564;2023-05-23T04:21:01;100406.66;;;14.99;71.87
46223;BME280;31943;51.410;7.564;2023-05-23T04:23:27;100418.06;;;14.99;72.06
46223;BME280;31943;51.410;7.564;2023-05-23T04:25:55;100419.78;;;15.00;71.87
46223;BME280;31943;51.410;7.564;2023-05-23T04:28:21;100417.19;;;14.94;71.92
46223;BME280;31943;51.410;7.564;2023-05-23T04:30:47;100423.34;;;14.86;72.36
46223;BME280;31943;51.410;7.564;2023-05-23T04:33:14;100415.50;;;14.79;72.41
46223;BME280;31943;51.410;7.564;2023-05-23T04:35:40;100413.78;;;14.77;72.79
46223;BME280;31943;51.410;7.564;2023-05-23T04:38:06;100421.66;;;14.74;73.16
46223;BME280;31943;51.410;7.564;2023-05-23T04:40:32;100419.91;;;14.73;73.43
46223;BME280;31943;51.410;7.564;2023-05-23T04:43:00;100427.84;;;14.68;73.38
46223;BME280;31943;51.410;7.564;2023-05-23T04:45:25;100424.34;;;14.63;73.55
46223;BME280;31943;51.410;7.564;2023-05-23T04:47:51;100416.47;;;14.65;73.92
46223;BME280;31943;51.410;7.564;2023-05-23T04:50:17;100419.91;;;14.74;73.78
46223;BME280;31943;51.410;7.564;2023-05-23T04:52:44;100419.88;;;14.80;73.63
46223;BME280;31943;51.410;7.564;2023-05-23T04:55:10;100425.09;;;14.87;73.56
46223;BME280;31943;51.410;7.564;2023-05-23T04:57:36;100430.34;;;14.93;73.54
46223;BME280;31943;51.410;7.564;2023-05-23T05:00:04;100432.97;;;14.94;73.62
46223;BME280;31943;51.410;7.564;2023-05-23T05:02:30;100424.22;;;14.94;73.07
46223;BME280;31943;51.410;7.564;2023-05-23T05:04:56;100437.34;;;14.89;73.17
46223;BME280;31943;51.410;7.564;2023-05-23T05:07:22;100440.88;;;14.90;73.33
46223;BME280;31943;51.410;7.564;2023-05-23T05:09:47;100451.34;;;14.94;72.91
46223;BME280;31943;51.410;7.564;2023-05-23T05:12:13;100445.22;;;14.88;72.62
46223;BME280;31943;51.410;7.564;2023-05-23T05:14:38;100447.06;;;14.78;73.04
46223;BME280;31943;51.410;7.564;2023-05-23T05:17:06;100450.53;;;14.77;73.05
46223;BME280;31943;51.410;7.564;2023-05-23T05:19:31;100453.16;;;14.77;73.17
46223;BME280;31943;51.410;7.564;2023-05-23T05:21:57;100447.94;;;14.71;73.13
46223;BME280;31943;51.410;7.564;2023-05-23T05:24:22;100442.66;;;14.74;73.40
46223;BME280;31943;51.410;7.564;2023-05-23T05:26:48;100447.03;;;14.79;73.01
46223;BME280;31943;51.410;7.564;2023-05-23T05:29:16;100453.16;;;14.80;72.88
46223;BME280;31943;51.410;7.564;2023-05-23T05:31:41;100453.16;;;14.77;73.02
46223;BME280;31943;51.410;7.564;2023-05-23T05:34:08;100450.53;;;14.75;72.73
46223;BME280;31943;51.410;7.564;2023-05-23T05:36:34;100449.69;;;14.75;73.04
46223;BME280;31943;51.410;7.564;2023-05-23T05:39:00;100461.06;;;14.80;73.27
46223;BME280;31943;51.410;7.564;2023-05-23T05:41:25;100461.91;;;14.82;72.71
46223;BME280;31943;51.410;7.564;2023-05-23T05:43:53;100458.44;;;14.80;72.71
46223;BME280;31943;51.410;7.564;2023-05-23T05:46:18;100461.91;;;14.80;72.56
46223;BME280;31943;51.410;7.564;2023-05-23T05:48:44;100476.81;;;14.78;72.64
46223;BME280;31943;51.410;7.564;2023-05-23T05:51:12;100473.31;;;14.76;72.62
46223;BME280;31943;51.410;7.564;2023-05-23T05:53:38;100471.56;;;14.74;72.69
46223;BME280;31943;51.410;7.564;2023-05-23T05:56:07;100470.69;;;14.76;72.68
46223;BME280;31943;51.410;7.564;2023-05-23T05:58:33;100482.94;;;14.76;72.61
46223;BME280;31943;51.410;7.564;2023-05-23T06:00:59;100482.06;;;14.74;72.38
46223;BME280;31943;51.410;7.564;2023-05-23T06:03:25;100485.59;;;14.71;72.95
46223;BME280;31943;51.410;7.564;2023-05-23T06:05:51;100481.19;;;14.72;72.57
46223;BME280;31943;51.410;7.564;2023-05-23T06:08:18;100476.81;;;14.75;72.61
46223;BME280;31943;51.410;7.564;2023-05-23T06:10:46;100478.56;;;14.72;72.79
46223;BME280;31943;51.410;7.564;2023-05-23T06:13:12;100481.19;;;14.75;72.98
46223;BME280;31943;51.410;7.564;2023-05-23T06:15:37;100485.56;;;14.77;72.97
46223;BME280;31943;51.410;7.564;2023-05-23T06:18:04;100485.56;;;14.79;72.78
46223;BME280;31943;51.410;7.564;2023-05-23T06:20:30;100487.31;;;14.74;72.83
46223;BME280;31943;51.410;7.564;2023-05-23T06:22:56;100494.34;;;14.76;72.97
46223;BME280;31943;51.410;7.564;2023-05-23T06:25:23;100497.84;;;14.78;73.09
46223;BME280;31943;51.410;7.564;2023-05-23T06:27:50;100494.31;;;14.81;72.93
46223;BME280;31943;51.410;7.564;2023-05-23T06:30:19;100490.84;;;14.73;72.96
46223;BME280;31943;51.410;7.564;2023-05-23T06:32:45;100490.88;;;14.68;72.89
46223;BME280;31943;51.410;7.564;2023-05-23T06:35:11;100491.72;;;14.66;73.08
46223;BME280;31943;51.410;7.564;2023-05-23T06:37:37;100496.09;;;14.62;72.79
46223;BME280;31943;51.410;7.564;2023-05-23T06:40:03;100497.91;;;14.58;73.12
46223;BME280;31943;51.410;7.564;2023-05-23T06:42:31;100497.88;;;14.60;72.96
46223;BME280;31943;51.410;7.564;2023-05-23T06:44:57;100506.59;;;14.56;72.58
46223;BME280;31943;51.410;7.564;2023-05-23T06:47:22;100511.88;;;14.53;72.83
46223;BME280;31943;51.410;7.564;2023-05-23T06:49:48;100502.25;;;14.46;73.05
46223;BME280;31943;51.410;7.564;2023-05-23T06:52:14;100520.63;;;14.42;73.08
46223;BME280;31943;51.410;7.564;2023-05-23T06:54:40;100520.66;;;14.41;73.63
46223;BME280;31943;51.410;7.564;2023-05-23T06:57:07;100522.41;;;14.37;73.84
46223;BME280;31943;51.410;7.564;2023-05-23T06:59:35;100532.03;;;14.35;74.31
46223;BME280;31943;51.410;7.564;2023-05-23T07:02:00;100530.25;;;14.34;74.26
46223;BME280;31943;51.410;7.564;2023-05-23T07:04:27;100537.28;;;14.29;74.72
46223;BME280;31943;51.410;7.564;2023-05-23T07:06:53;100533.75;;;14.21;74.49
46223;BME280;31943;51.410;7.564;2023-05-23T07:09:18;100543.38;;;14.19;74.73
46223;BME280;31943;51.410;7.564;2023-05-23T07:11:44;100540.78;;;14.10;73.65
46223;BME280;31943;51.410;7.564;2023-05-23T07:14:10;100538.16;;;14.03;74.18
46223;BME280;31943;51.410;7.564;2023-05-23T07:16:37;100546.88;;;14.01;74.64
46223;BME280;31943;51.410;7.564;2023-05-23T07:19:03;100556.50;;;13.97;74.70
46223;BME280;31943;51.410;7.564;2023-05-23T07:21:29;100556.50;;;13.93;74.88
46223;BME280;31943;51.410;7.564;2023-05-23T07:23:55;100553.91;;;13.94;75.20
46223;BME280;31943;51.410;7.564;2023-05-23T07:26:20;100561.75;;;13.94;75.33
46223;BME280;31943;51.410;7.564;2023-05-23T07:28:46;100566.13;;;13.89;75.54
46223;BME280;31943;51.410;7.564;2023-05-23T07:31:12;100566.13;;;13.89;75.51
46223;BME280;31943;51.410;7.564;2023-05-23T07:33:39;100574.00;;;13.80;76.66
46223;BME280;31943;51.410;7.564;2023-05-23T07:36:05;100570.44;;;13.65;76.60
46223;BME280;31943;51.410;7.564;2023-05-23T07:38:31;100576.56;;;13.63;77.04
46223;BME280;31943;51.410;7.564;2023-05-23T07:40:57;100588.78;;;13.64;76.52
46223;BME280;31943;51.410;7.564;2023-05-23T07:43:23;100591.41;;;13.61;75.79
46223;BME280;31943;51.410;7.564;2023-05-23T07:45:48;100584.38;;;13.54;76.18
46223;BME280;31943;51.410;7.564;2023-05-23T07:48:14;100583.53;;;13.49;76.45
46223;BME280;31943;51.410;7.564;2023-05-23T07:50:41;100582.66;;;13.53;75.93
46223;BME280;31943;51.410;7.564;2023-05-23T07:53:08;100597.50;;;13.52;75.51
46223;BME280;31943;51.410;7.564;2023-05-23T07:55:33;100601.91;;;13.55;75.63
46223;BME280;31943;51.410;7.564;2023-05-23T07:57:59;100598.38;;;13.53;75.21
46223;BME280;31943;51.410;7.564;2023-05-23T08:00:25;100593.16;;;13.53;75.35
46223;BME280;31943;51.410;7.564;2023-05-23T08:02:51;100599.25;;;13.49;75.72
46223;BME280;31943;51.410;7.564;2023-05-23T08:05:17;100594.88;;;13.52;75.69
46223;BME280;31943;51.410;7.564;2023-05-23T08:07:48;100599.28;;;13.59;75.61
46223;BME280;31943;51.410;7.564;2023-05-23T08:10:14;100598.41;;;13.62;75.64
46223;BME280;31943;51.410;7.564;2023-05-23T08:12:40;100599.31;;;13.69;75.55
46223;BME280;31943;51.410;7.564;2023-05-23T08:15:08;100604.56;;;13.78;75.00
46223;BME280;31943;51.410;7.564;2023-05-23T08:17:34;100608.97;;;13.80;74.91
46223;BME280;31943;51.410;7.564;2023-05-23T08:20:02;100614.19;;;13.83;74.74
46223;BME280;31943;51.410;7.564;2023-05-23T08:22:27;100619.47;;;13.87;74.09
46223;BME280;31943;51.410;7.564;2023-05-23T08:24:55;100610.72;;;13.84;73.05
46223;BME280;31943;51.410;7.564;2023-05-23T08:27:20;100615.09;;;13.84;72.65
46223;BME280;31943;51.410;7.564;2023-05-23T08:29:47;100621.19;;;13.83;72.84
46223;BME280;31943;51.410;7.564;2023-05-23T08:32:12;100615.94;;;13.88;72.95
46223;BME280;31943;51.410;7.564;2023-05-23T08:34:41;100618.59;;;13.95;73.00
46223;BME280;31943;51.410;7.564;2023-05-23T08:37:07;100619.47;;;13.97;73.10
46223;BME280;31943;51.410;7.564;2023-05-23T08:39:33;100618.63;;;14.01;72.88
46223;BME280;31943;51.410;7.564;2023-05-23T08:42:00;100623.00;;;14.02;73.06
46223;BME280;31943;51.410;7.564;2023-05-23T08:44:26;100623.88;;;14.11;72.74
46223;BME280;31943;51.410;7.564;2023-05-23T08:46:52;100624.75;;;14.10;72.68
46223;BME280;31943;51.410;7.564;2023-05-23T08:49:18;100620.38;;;14.12;72.38
46223;BME280;31943;51.410;7.564;2023-05-23T08:51:51;100623.88;;;14.17;72.27
46223;BME280;31943;51.410;7.564;2023-05-23T08:54:20;100629.16;;;14.15;71.80
46223;BME280;31943;51.410;7.564;2023-05-23T08:56:45;100635.28;;;14.23;71.26
46223;BME280;31943;51.410;7.564;2023-05-23T08:59:13;100637.91;;;14.25;70.78
46223;BME280;31943;51.410;7.564;2023-05-23T09:01:42;100633.53;;;14.26;70.40
46223;BME280;31943;51.410;7.564;2023-05-23T09:04:08;100638.78;;;14.19;70.76
46223;BME280;31943;51.410;7.564;2023-05-23T09:06:35;100650.13;;;14.12;71.35
46223;BME280;31943;51.410;7.564;2023-05-23T09:09:00;100656.22;;;14.07;71.02
46223;BME280;31943;51.410;7.564;2023-05-23T09:11:26;100651.84;;;14.07;71.85
46223;BME280;31943;51.410;7.564;2023-05-23T09:13:52;100659.69;;;13.93;71.24
46223;BME280;31943;51.410;7.564;2023-05-23T09:16:20;100674.56;;;13.88;71.33
46223;BME280;31943;51.410;7.564;2023-05-23T09:18:45;100673.63;;;13.75;71.81
46223;BME280;31943;51.410;7.564;2023-05-23T09:21:12;100668.38;;;13.71;71.53
46223;BME280;31943;51.410;7.564;2023-05-23T09:23:40;100673.59;;;13.69;70.95
46223;BME280;31943;51.410;7.564;2023-05-23T09:26:06;100670.06;;;13.64;71.16
46223;BME280;31943;51.410;7.564;2023-05-23T09:28:33;100680.63;;;13.70;71.15
46223;BME280;31943;51.410;7.564;2023-05-23T09:31:00;100671.00;;;13.71;71.00
46223;BME280;31943;51.410;7.564;2023-05-23T09:33:39;100676.22;;;13.68;71.10
46223;BME280;31943;51.410;7.564;2023-05-23T09:36:05;100675.41;;;13.76;70.94
46223;BME280;31943;51.410;7.564;2023-05-23T09:38:31;100678.00;;;13.78;70.82
46223;BME280;31943;51.410;7.564;2023-05-23T09:40:58;100676.31;;;13.86;70.71
46223;BME280;31943;51.410;7.564;2023-05-23T09:43:24;100683.31;;;14.01;70.73
46223;BME280;31943;51.410;7.564;2023-05-23T09:45:52;100671.09;;;14.00;70.01
46223;BME280;31943;51.410;7.564;2023-05-23T09:48:18;100683.31;;;13.92;69.91
46223;BME280;31943;51.410;7.564;2023-05-23T09:50:45;100679.78;;;13.83;70.50
46223;BME280;31943;51.410;7.564;2023-05-23T09:53:11;100680.63;;;13.73;71.14
46223;BME280;31943;51.410;7.564;2023-05-23T09:55:37;100685.00;;;13.73;71.42
46223;BME280;31943;51.410;7.564;2023-05-23T09:58:03;100681.47;;;13.63;71.53
46223;BME280;31943;51.410;7.564;2023-05-23T10:00:30;100687.56;;;13.62;71.92
46223;BME280;31943;51.410;7.564;2023-05-23T10:03:03;100690.19;;;13.60;72.13
46223;BME280;31943;51.410;7.564;2023-05-23T10:05:32;100694.53;;;13.60;72.14
46223;BME280;31943;51.410;7.564;2023-05-23T10:08:05;100688.38;;;13.52;71.81
46223;BME280;31943;51.410;7.564;2023-05-23T10:10:32;100693.59;;;13.45;72.05
46223;BME280;31943;51.410;7.564;2023-05-23T10:13:01;100693.53;;;13.36;71.73
46223;BME280;31943;51.410;7.564;2023-05-23T10:15:30;100707.41;;;13.24;72.00
46223;BME280;31943;51.410;7.564;2023-05-23T10:18:06;100705.66;;;13.22;71.93
46223;BME280;31943;51.410;7.564;2023-05-23T10:20:35;100710.03;;;13.24;71.53
46223;BME280;31943;51.410;7.564;2023-05-23T10:23:05;100724.03;;;13.28;71.04
46223;BME280;31943;51.410;7.564;2023-05-23T10:25:31;100725.75;;;13.21;70.34
46223;BME280;31943;51.410;7.564;2023-05-23T10:27:57;100745.84;;;13.19;70.43
46223;BME280;31943;51.410;7.564;2023-05-23T10:30:24;100732.72;;;13.21;69.84
46223;BME280;31943;51.410;7.564;2023-05-23T10:32:51;100727.59;;;13.30;69.34
46223;BME280;31943;51.410;7.564;2023-05-23T10:35:24;100725.88;;;13.34;69.06
46223;BME280;31943;51.410;7.564;2023-05-23T10:37:58;100726.78;;;13.39;69.06
46223;BME280;31943;51.410;7.564;2023-05-23T10:40:33;100723.34;;;13.51;68.80
46223;BME280;31943;51.410;7.564;2023-05-23T10:43:06;100726.03;;;13.63;68.68
46223;BME280;31943;51.410;7.564;2023-05-23T10:45:39;100724.25;;;13.62;68.06
46223;BME280;31943;51.410;7.564;2023-05-23T10:48:18;100739.09;;;13.55;68.17
46223;BME280;31943;51.410;7.564;2023-05-23T10:50:44;100743.34;;;13.36;68.42
46223;BME280;31943;51.410;7.564;2023-05-23T10:53:15;100753.75;;;13.25;68.87
46223;BME280;31943;51.410;7.564;2023-05-23T10:55:47;100753.63;;;13.10;68.89
46223;BME280;31943;51.410;7.564;2023-05-23T10:58:16;100762.31;;;13.04;68.70
46223;BME280;31943;51.410;7.564;2023-05-23T11:00:50;100766.53;;;12.87;68.46
46223;BME280;31943;51.410;7.564;2023-05-23T11:03:16;100773.50;;;12.86;68.03
46223;BME280;31943;51.410;7.564;2023-05-23T11:05:46;100767.47;;;12.94;66.94
46223;BME280;31943;51.410;7.564;2023-05-23T11:08:19;100763.19;;;13.05;67.06
46223;BME280;31943;51.410;7.564;2023-05-23T11:10:53;100762.50;;;13.28;66.91
46223;BME280;31943;51.410;7.564;2023-05-23T11:13:19;100763.50;;;13.45;65.97
46223;BME280;31943;51.410;7.564;2023-05-23T11:15:45;100764.50;;;13.62;65.88
46223;BME280;31943;51.410;7.564;2023-05-23T11:18:19;100769.88;;;13.84;65.21
46223;BME280;31943;51.410;7.564;2023-05-23T11:20:45;100762.91;;;13.97;63.95
46223;BME280;31943;51.410;7.564;2023-05-23T11:23:11;100763.78;;;13.96;63.70
46223;BME280;31943;51.410;7.564;2023-05-23T11:25:41;100768.22;;;14.06;63.52
46223;BME280;31943;51.410;7.564;2023-05-23T11:28:10;100756.00;;;14.16;62.13
46223;BME280;31943;51.410;7.564;2023-05-23T11:30:37;100766.53;;;14.33;62.42
46223;BME280;31943;51.410;7.564;2023-05-23T11:33:07;100764.84;;;14.52;61.21
46223;BME280;31943;51.410;7.564;2023-05-23T11:35:34;100758.75;;;14.62;59.46
46223;BME280;31943;51.410;7.564;2023-05-23T11:38:00;100758.78;;;14.60;60.20
46223;BME280;31943;51.410;7.564;2023-05-23T11:40:28;100753.50;;;14.57;60.75
46223;BME280;31943;51.410;7.564;2023-05-23T11:42:54;100756.06;;;14.54;61.42
46223;BME280;31943;51.410;7.564;2023-05-23T11:45:22;100762.22;;;14.52;61.04
46223;BME280;31943;51.410;7.564;2023-05-23T11:47:48;100762.19;;;14.42;61.47
46223;BME280;31943;51.410;7.564;2023-05-23T11:50:14;100764.78;;;14.36;61.65
46223;BME280;31943;51.410;7.564;2023-05-23T11:52:41;100769.16;;;14.31;61.36
46223;BME280;31943;51.410;7.564;2023-05-23T11:55:08;100771.78;;;14.30;61.32
46223;BME280;31943;51.410;7.564;2023-05-23T11:57:37;100772.63;;;14.24;61.09
46223;BME280;31943;51.410;7.564;2023-05-23T12:00:05;100772.66;;;14.26;61.37
46223;BME280;31943;51.410;7.564;2023-05-23T12:02:37;100770.03;;;14.32;60.73
46223;BME280;31943;51.410;7.564;2023-05-23T12:05:06;100780.56;;;14.35;61.37
46223;BME280;31943;51.410;7.564;2023-05-23T12:07:32;100783.19;;;14.41;60.98
46223;BME280;31943;51.410;7.564;2023-05-23T12:09:58;100786.69;;;14.40;60.17
46223;BME280;31943;51.410;7.564;2023-05-23T12:12:24;100788.41;;;14.27;60.12
46223;BME280;31943;51.410;7.564;2023-05-23T12:14:54;100781.41;;;14.23;60.25
46223;BME280;31943;51.410;7.564;2023-05-23T12:17:20;100792.78;;;14.30;60.05
46223;BME280;31943;51.410;7.564;2023-05-23T12:19:48;100786.66;;;14.32;59.67
46223;BME280;31943;51.410;7.564;2023-05-23T12:22:14;100791.94;;;14.40;59.91
46223;BME280;31943;51.410;7.564;2023-05-23T12:24:44;100790.19;;;14.40;59.37
46223;BME280;31943;51.410;7.564;2023-05-23T12:27:11;100788.44;;;14.39;59.76
46223;BME280;31943;51.410;7.564;2023-05-23T12:29:39;100784.91;;;14.30;59.08
46223;BME280;31943;51.410;7.564;2023-05-23T12:32:06;100798.88;;;14.21;59.37
46223;BME280;31943;51.410;7.564;2023-05-23T12:34:32;100793.63;;;14.18;60.21
46223;BME280;31943;51.410;7.564;2023-05-23T12:37:00;100797.16;;;14.32;60.62
46223;BME280;31943;51.410;7.564;2023-05-23T12:39:27;100798.97;;;14.49;60.81
46223;BME280;31943;51.410;7.564;2023-05-23T12:41:53;100792.94;;;14.67;59.31
46223;BME280;31943;51.410;7.564;2023-05-23T12:44:18;100798.19;;;14.80;59.23
46223;BME280;31943;51.410;7.564;2023-05-23T12:46:45;100803.47;;;15.03;57.16
46223;BME280;31943;51.410;7.564;2023-05-23T12:49:12;100804.34;;;15.10;56.54
46223;BME280;31943;51.410;7.564;2023-05-23T12:51:38;100804.34;;;15.15;56.48
46223;BME280;31943;51.410;7.564;2023-05-23T12:54:08;100795.59;;;15.16;55.97